createdAt,value
2023-05-10T00:06:02.664Z,11.00
2023-05-10T00:16:02.831Z,12.00
2023-05-10T00:26:02.644Z,11.20
2023-05-10T00:36:02.692Z,11.10
2023-05-10T00:56:02.653Z,14.70
2023-05-10T01:06:02.667Z,16.50
2023-05-10T01:16:02.827Z,16.40
2023-05-10T01:36:02.655Z,18.10
2023-05-10T01:46:02.743Z,18.60
2023-05-10T01:56:02.677Z,19.00
2023-05-10T02:06:02.678Z,20.90
2023-05-10T02:16:02.670Z,20.20
2023-05-10T02:26:02.690Z,18.60
2023-05-10T02:36:02.706Z,18.70
2023-05-10T02:46:02.828Z,17.20
2023-05-10T02:56:02.708Z,18.00
2023-05-10T03:06:02.670Z,14.60
2023-05-10T03:16:02.715Z,16.80
2023-05-10T03:26:02.715Z,19.10
2023-05-10T03:36:02.737Z,19.10
2023-05-10T03:46:02.716Z,18.70
2023-05-10T03:56:02.723Z,18.70
2023-05-10T04:06:02.803Z,16.10
2023-05-10T04:16:02.743Z,15.80
2023-05-10T04:26:02.791Z,10.70
2023-05-10T04:36:02.741Z,11.10
2023-05-10T04:46:02.772Z,11.00
2023-05-10T04:56:02.715Z,9.80
2023-05-10T05:06:02.759Z,9.60
2023-05-10T05:16:02.779Z,11.60
2023-05-10T05:26:02.756Z,10.10
2023-05-10T05:36:02.763Z,11.40
2023-05-10T05:46:02.791Z,9.10
2023-05-10T05:56:02.772Z,10.50
2023-05-10T06:06:02.745Z,8.70
2023-05-10T06:16:02.778Z,13.30
2023-05-10T06:26:02.777Z,9.70
2023-05-10T06:36:02.815Z,7.60
2023-05-10T06:46:02.806Z,8.60
2023-05-10T06:56:02.801Z,9.60
2023-05-10T07:06:02.967Z,8.20
2023-05-10T07:16:02.780Z,7.10
2023-05-10T07:26:02.822Z,7.00
2023-05-10T07:36:02.861Z,6.80
2023-05-10T07:46:02.825Z,6.00
2023-05-10T07:56:02.828Z,9.30
2023-05-10T08:06:02.788Z,8.90
2023-05-10T08:16:02.845Z,8.10
2023-05-10T08:26:02.830Z,7.00
2023-05-10T08:36:02.908Z,7.40
2023-05-10T08:46:03.019Z,6.80
2023-05-10T08:56:02.913Z,6.30
2023-05-10T09:06:02.826Z,6.10
2023-05-10T09:16:13.591Z,7.40
2023-05-10T09:26:02.869Z,7.10
2023-05-10T09:36:02.844Z,11.70
2023-05-10T09:46:02.907Z,8.40
2023-05-10T09:56:02.856Z,7.00
2023-05-10T10:06:02.869Z,6.40
2023-05-10T10:16:02.996Z,5.30
2023-05-10T10:26:02.891Z,8.00
2023-05-10T10:36:02.855Z,5.60
2023-05-10T10:46:02.876Z,7.20
2023-05-10T10:56:02.984Z,5.60
2023-05-10T11:06:03.040Z,5.80
2023-05-10T11:16:02.943Z,5.30
2023-05-10T11:26:02.903Z,6.60
2023-05-10T11:36:02.923Z,5.80
2023-05-10T11:46:02.955Z,6.50
2023-05-10T11:56:02.914Z,9.30
2023-05-10T12:06:02.929Z,7.10
2023-05-10T12:16:02.972Z,6.00
2023-05-10T12:26:02.923Z,6.90
2023-05-10T12:36:02.934Z,5.80
2023-05-10T12:46:03.091Z,4.70
2023-05-10T12:56:03.150Z,9.10
2023-05-10T13:06:02.965Z,4.90
2023-05-10T13:16:02.979Z,5.10
2023-05-10T13:26:02.957Z,4.40
2023-05-10T13:36:02.966Z,7.10
2023-05-10T13:46:03.027Z,5.20
2023-05-10T13:56:02.987Z,6.50
2023-05-10T14:06:03.001Z,6.80
2023-05-10T14:16:03.043Z,8.60
2023-05-10T14:26:03.009Z,5.20
2023-05-10T14:36:02.992Z,4.60
2023-05-10T14:46:03.044Z,5.40
2023-05-10T14:56:03.023Z,6.30
2023-05-10T15:06:03.024Z,7.90
2023-05-10T15:16:03.184Z,4.70
2023-05-10T15:26:03.045Z,5.80
2023-05-10T15:36:03.011Z,6.00
2023-05-10T15:46:03.032Z,5.20
2023-05-10T15:56:03.036Z,5.00
2023-05-10T16:06:03.031Z,7.90
2023-05-10T16:16:03.091Z,5.10
2023-05-10T16:26:03.042Z,5.10
2023-05-10T16:36:03.066Z,5.60
2023-05-10T16:46:03.199Z,10.90
2023-05-10T16:56:03.079Z,4.80
2023-05-10T17:06:03.152Z,5.10
2023-05-10T17:16:03.146Z,6.00
2023-05-10T17:26:03.110Z,5.50
2023-05-10T17:36:03.157Z,5.00
2023-05-10T17:46:03.196Z,6.20
2023-05-10T17:56:03.098Z,7.60
2023-05-10T18:06:03.229Z,7.70
2023-05-10T18:16:03.239Z,15.00
2023-05-10T18:26:03.089Z,5.90
2023-05-10T18:36:03.110Z,8.00
2023-05-10T18:46:03.208Z,7.20
2023-05-10T18:56:03.205Z,8.20
2023-05-10T19:06:03.128Z,14.90
2023-05-10T19:16:04.618Z,9.40
2023-05-10T19:26:03.204Z,10.40
2023-05-10T19:36:03.139Z,8.60
2023-05-10T19:56:03.164Z,9.20
2023-05-10T20:06:03.150Z,8.70
2023-05-10T20:16:03.142Z,9.40
2023-05-10T20:26:03.156Z,9.20
2023-05-10T20:36:03.169Z,8.80
2023-05-10T20:46:03.183Z,9.20
2023-05-10T20:56:03.175Z,10.50
2023-05-10T21:06:03.260Z,9.20
2023-05-10T21:16:03.209Z,9.00
2023-05-10T21:36:03.270Z,8.30
2023-05-10T21:46:03.266Z,8.70
2023-05-10T21:56:03.182Z,10.20
2023-05-10T22:06:03.191Z,9.00
2023-05-10T22:16:03.222Z,9.70
2023-05-10T22:26:03.214Z,10.40
2023-05-10T22:36:03.197Z,8.80
2023-05-10T22:46:03.256Z,9.20
2023-05-10T22:56:03.190Z,9.20
2023-05-10T23:06:03.223Z,9.80
2023-05-10T23:16:03.220Z,9.50
2023-05-10T23:26:03.203Z,11.60
2023-05-10T23:36:03.211Z,9.30
2023-05-10T23:46:03.242Z,9.70
2023-05-10T23:56:03.317Z,11.10
